Time;durP1;ratioP1;P1;durP2;ratioP2;P2;SDS_P1;SDS_P2;PMS_P1;PMS_P2;Temp;Humidity;BMP_temperature;BMP_pressure;BME280_temperature;BME280_humidity;BME280_pressure;Samples;Min_cycle;Max_cycle;Signal;HPM_P1;HPM_P2
2023/08/18 00:00:00;;;;;;;;;;;21.50;70.40;;;;;;5016293;28;19917;-73
2023/08/18 00:02:26;;;;;;;;;;;21.40;70.50;;;;;;5033772;28;19921;-74
2023/08/18 00:04:51;;;;;;;;;;;21.50;70.60;;;;;;5032650;28;20000;-74
2023/08/18 00:07:17;;;;;;;;;;;21.50;70.70;;;;;;5033472;28;20002;-74
2023/08/18 00:09:45;;;;;;;;;;;21.50;70.80;;;;;;5033557;28;19913;-74
2023/08/18 00:12:10;;;;;;;;;;;21.50;70.90;;;;;;5033470;28;19924;-74
2023/08/18 00:14:36;;;;;;;;;;;21.50;71.10;;;;;;5033581;28;20025;-74
2023/08/18 00:17:01;;;;;;;;;;;21.50;71.00;;;;;;5033321;28;19920;-74
2023/08/18 00:19:27;;;;;;;;;;;21.50;71.10;;;;;;5033455;28;19909;-75
2023/08/18 00:21:52;;;;;;;;;;;21.50;71.20;;;;;;5033780;28;20335;-73
2023/08/18 00:24:18;;;;;;;;;;;21.50;71.00;;;;;;5031902;28;19956;-74
2023/08/18 00:26:45;;;;;;;;;;;21.50;71.10;;;;;;5033221;28;19962;-75
2023/08/18 00:29:11;;;;;;;;;;;21.50;71.20;;;;;;5033319;28;19925;-72
2023/08/18 00:31:37;;;;;;;;;;;21.50;71.20;;;;;;5033250;28;20312;-75
2023/08/18 00:34:03;;;;;;;;;;;21.50;71.20;;;;;;5033653;28;19921;-72
2023/08/18 00:36:30;;;;;;;;;;;21.60;71.20;;;;;;5033093;28;20313;-72
2023/08/18 00:38:55;;;;;;;;;;;21.60;71.30;;;;;;5033703;28;19917;-73
2023/08/18 00:41:21;;;;;;;;;;;21.60;71.30;;;;;;5032916;28;19913;-72
2023/08/18 00:43:47;;;;;;;;;;;21.70;71.40;;;;;;5031839;28;19963;-73
2023/08/18 00:46:12;;;;;;;;;;;21.70;71.30;;;;;;5032725;28;19917;-73
2023/08/18 00:48:38;;;;;;;;;;;21.70;71.30;;;;;;5032849;28;20027;-73
2023/08/18 00:51:05;;;;;;;;;;;21.70;71.30;;;;;;5032733;28;19909;-73
2023/08/18 00:53:30;;;;;;;;;;;21.70;71.20;;;;;;5033363;28;20292;-73
2023/08/18 00:55:56;;;;;;;;;;;21.70;71.30;;;;;;5032611;28;20011;-73
2023/08/18 00:58:22;;;;;;;;;;;21.60;71.40;;;;;;5032891;28;20383;-72
2023/08/18 01:00:48;;;;;;;;;;;21.60;71.30;;;;;;5031798;28;19913;-80
2023/08/18 01:03:14;;;;;;;;;;;21.60;71.40;;;;;;5034050;28;19921;-79
2023/08/18 01:05:40;;;;;;;;;;;21.60;71.40;;;;;;5032658;28;19913;-79
2023/08/18 01:08:05;;;;;;;;;;;21.60;71.40;;;;;;5031539;28;19943;-79
2023/08/18 01:10:32;;;;;;;;;;;21.60;71.50;;;;;;5032973;28;19956;-80
2023/08/18 01:13:10;;;;;;;;;;;21.60;71.40;;;;;;5031432;28;19924;-79
2023/08/18 01:15:38;;;;;;;;;;;21.60;71.40;;;;;;5033220;28;20282;-80
2023/08/18 01:18:04;;;;;;;;;;;21.50;71.50;;;;;;5032992;28;19917;-80
2023/08/18 01:20:30;;;;;;;;;;;21.50;71.60;;;;;;5032675;28;19913;-79
2023/08/18 01:22:56;;;;;;;;;;;21.50;71.80;;;;;;5032538;28;19917;-80
2023/08/18 01:25:22;;;;;;;;;;;21.60;71.80;;;;;;5032150;28;20278;-78
2023/08/18 01:27:47;;;;;;;;;;;21.60;71.70;;;;;;5031472;28;19917;-78
2023/08/18 01:30:14;;;;;;;;;;;21.60;71.70;;;;;;5033010;28;19909;-78
2023/08/18 01:32:46;;;;;;;;;;;21.60;71.50;;;;;;5035000;28;19924;-77
2023/08/18 01:35:12;;;;;;;;;;;21.60;71.50;;;;;;5035960;28;20285;-78
2023/08/18 01:37:38;;;;;;;;;;;21.60;71.70;;;;;;5039442;28;19921;-77
2023/08/18 01:40:04;;;;;;;;;;;21.50;71.70;;;;;;5043636;28;19920;-78
2023/08/18 01:42:30;;;;;;;;;;;21.50;71.60;;;;;;5054670;28;19928;-77
2023/08/18 01:44:59;;;;;;;;;;;21.60;71.50;;;;;;5054037;28;20365;-77
2023/08/18 01:47:25;;;;;;;;;;;21.50;71.50;;;;;;5043056;28;19917;-78
2023/08/18 01:49:50;;;;;;;;;;;21.50;71.80;;;;;;5033326;28;20069;-76
2023/08/18 01:52:16;;;;;;;;;;;21.50;71.70;;;;;;5039361;28;19936;-76
2023/08/18 01:54:41;;;;;;;;;;;21.50;71.60;;;;;;5041589;28;19960;-75
2023/08/18 01:57:08;;;;;;;;;;;21.50;71.70;;;;;;5041978;28;19924;-75
2023/08/18 01:59:34;;;;;;;;;;;21.50;71.60;;;;;;5041508;28;19920;-76
2023/08/18 02:01:59;;;;;;;;;;;21.50;71.60;;;;;;5040975;28;19917;-75
2023/08/18 02:04:25;;;;;;;;;;;21.40;71.60;;;;;;5039791;28;19920;-75
2023/08/18 02:06:50;;;;;;;;;;;21.50;71.60;;;;;;5039926;28;19920;-76
2023/08/18 02:09:15;;;;;;;;;;;21.50;71.70;;;;;;5039826;28;19920;-76
2023/08/18 02:11:41;;;;;;;;;;;21.40;71.60;;;;;;5035441;28;19913;-72
2023/08/18 02:14:07;;;;;;;;;;;21.40;71.50;;;;;;5032125;28;19940;-72
2023/08/18 02:16:32;;;;;;;;;;;21.40;71.80;;;;;;5031382;28;19921;-71
2023/08/18 02:18:58;;;;;;;;;;;21.40;71.70;;;;;;5031333;28;19936;-71
2023/08/18 02:21:23;;;;;;;;;;;21.40;71.90;;;;;;5031410;28;19936;-73
2023/08/18 02:23:49;;;;;;;;;;;21.40;72.00;;;;;;5030308;28;19952;-73
2023/08/18 02:26:14;;;;;;;;;;;21.40;72.00;;;;;;5031367;28;19917;-73
2023/08/18 02:28:40;;;;;;;;;;;21.40;72.00;;;;;;5031988;28;19913;-73
2023/08/18 02:31:06;;;;;;;;;;;21.40;72.00;;;;;;5031452;28;19913;-73
2023/08/18 02:33:32;;;;;;;;;;;21.40;72.00;;;;;;5031671;28;19913;-73
2023/08/18 02:36:00;;;;;;;;;;;21.40;72.00;;;;;;5031342;28;19917;-73
2023/08/18 02:38:29;;;;;;;;;;;21.40;71.90;;;;;;5031651;28;20339;-72
2023/08/18 02:40:55;;;;;;;;;;;21.40;71.90;;;;;;5029985;28;20288;-73
2023/08/18 02:43:23;;;;;;;;;;;21.40;71.90;;;;;;5031466;28;20004;-72
2023/08/18 02:45:53;;;;;;;;;;;21.40;71.90;;;;;;5031452;28;19917;-73
2023/08/18 02:48:19;;;;;;;;;;;21.50;72.00;;;;;;5030062;28;19928;-73
2023/08/18 02:50:44;;;;;;;;;;;21.40;72.10;;;;;;5031424;28;19909;-73
2023/08/18 02:53:10;;;;;;;;;;;21.50;72.00;;;;;;5029967;28;19917;-73
2023/08/18 02:55:35;;;;;;;;;;;21.50;72.00;;;;;;5031086;28;19913;-72
2023/08/18 02:58:01;;;;;;;;;;;21.60;71.90;;;;;;5031136;28;19913;-72
2023/08/18 03:00:27;;;;;;;;;;;21.60;71.90;;;;;;5029790;28;19921;-72
2023/08/18 03:02:52;;;;;;;;;;;21.50;71.80;;;;;;5031230;28;19916;-73
2023/08/18 03:05:18;;;;;;;;;;;21.50;71.80;;;;;;5031531;28;20299;-72
2023/08/18 03:07:44;;;;;;;;;;;21.50;71.90;;;;;;5031033;28;19913;-72
2023/08/18 03:10:09;;;;;;;;;;;21.50;71.90;;;;;;5031340;28;19967;-72
2023/08/18 03:12:35;;;;;;;;;;;21.50;71.90;;;;;;5029763;28;20368;-72
2023/08/18 03:15:00;;;;;;;;;;;21.50;71.80;;;;;;5031685;28;19917;-72
2023/08/18 03:17:26;;;;;;;;;;;21.50;71.90;;;;;;5034281;28;20390;-72
2023/08/18 03:19:51;;;;;;;;;;;21.50;72.00;;;;;;5035122;28;19917;-72
2023/08/18 03:22:17;;;;;;;;;;;21.50;72.00;;;;;;5034985;28;19913;-72
2023/08/18 03:24:42;;;;;;;;;;;21.50;72.10;;;;;;5033193;28;20002;-72
2023/08/18 03:27:07;;;;;;;;;;;21.50;72.20;;;;;;5034481;28;19909;-73
2023/08/18 03:29:33;;;;;;;;;;;21.50;72.10;;;;;;5034501;28;20007;-72
2023/08/18 03:31:58;;;;;;;;;;;21.40;72.00;;;;;;5034344;28;19919;-72
2023/08/18 03:34:24;;;;;;;;;;;21.40;72.10;;;;;;5034536;28;20348;-73
2023/08/18 03:36:49;;;;;;;;;;;21.40;72.20;;;;;;5034283;28;20288;-72
2023/08/18 03:39:15;;;;;;;;;;;21.50;72.20;;;;;;5034233;28;20392;-72
2023/08/18 03:41:40;;;;;;;;;;;21.50;72.10;;;;;;5034043;28;19920;-72
2023/08/18 03:44:06;;;;;;;;;;;21.40;72.20;;;;;;5034352;28;20369;-72
2023/08/18 03:46:31;;;;;;;;;;;21.50;72.20;;;;;;5034022;28;19909;-72
2023/08/18 03:48:57;;;;;;;;;;;21.50;72.20;;;;;;5033743;28;19917;-73
2023/08/18 03:51:22;;;;;;;;;;;21.50;72.20;;;;;;5032710;28;20304;-73
2023/08/18 03:53:48;;;;;;;;;;;21.50;72.20;;;;;;5033915;28;19955;-72
2023/08/18 03:56:13;;;;;;;;;;;21.50;72.20;;;;;;5033780;28;20002;-72
2023/08/18 03:58:39;;;;;;;;;;;21.50;72.10;;;;;;5033798;28;19913;-72
2023/08/18 04:01:07;;;;;;;;;;;21.50;72.10;;;;;;5034220;28;19967;-72
2023/08/18 04:03:36;;;;;;;;;;;21.50;72.20;;;;;;5033793;28;19945;-73
2023/08/18 04:06:03;;;;;;;;;;;21.50;72.20;;;;;;5034157;28;19913;-72
2023/08/18 04:08:30;;;;;;;;;;;21.50;72.30;;;;;;5033735;28;19917;-72
2023/08/18 04:10:55;;;;;;;;;;;21.50;72.30;;;;;;5033903;28;19913;-73
2023/08/18 04:13:20;;;;;;;;;;;21.50;72.30;;;;;;5033671;28;20435;-73
2023/08/18 04:15:46;;;;;;;;;;;21.50;72.30;;;;;;5033848;28;20373;-72
2023/08/18 04:18:11;;;;;;;;;;;21.50;72.40;;;;;;5033502;28;19921;-72
2023/08/18 04:20:37;;;;;;;;;;;21.50;72.30;;;;;;5033803;28;19928;-71
2023/08/18 04:23:03;;;;;;;;;;;21.50;72.40;;;;;;5032544;28;19913;-71
2023/08/18 04:25:28;;;;;;;;;;;21.60;72.50;;;;;;5033649;28;19913;-72
2023/08/18 04:27:54;;;;;;;;;;;21.60;72.40;;;;;;5033024;28;19921;-71
2023/08/18 04:30:19;;;;;;;;;;;21.60;72.30;;;;;;5033732;28;19924;-72
2023/08/18 04:32:44;;;;;;;;;;;21.60;72.30;;;;;;5033126;28;19913;-72
2023/08/18 04:35:10;;;;;;;;;;;21.60;72.20;;;;;;5033521;28;19920;-73
2023/08/18 04:37:36;;;;;;;;;;;21.60;72.10;;;;;;5031872;28;19917;-72
2023/08/18 04:40:03;;;;;;;;;;;21.60;72.30;;;;;;5033656;28;19939;-72
2023/08/18 04:42:29;;;;;;;;;;;21.60;72.20;;;;;;5031823;28;19920;-72
2023/08/18 04:44:54;;;;;;;;;;;21.70;72.40;;;;;;5033304;28;19913;-72
2023/08/18 04:47:20;;;;;;;;;;;21.70;72.40;;;;;;5032987;28;19913;-73
2023/08/18 04:49:45;;;;;;;;;;;21.70;72.40;;;;;;5032815;28;20273;-72
2023/08/18 04:52:11;;;;;;;;;;;21.70;72.40;;;;;;5031528;28;20368;-72
2023/08/18 04:54:36;;;;;;;;;;;21.80;72.40;;;;;;5033113;28;20419;-73
2023/08/18 04:57:04;;;;;;;;;;;21.80;72.30;;;;;;5032785;28;20002;-72
2023/08/18 04:59:30;;;;;;;;;;;21.80;72.40;;;;;;5032715;28;19925;-72
2023/08/18 05:01:55;;;;;;;;;;;21.80;72.50;;;;;;5031400;28;19916;-72
2023/08/18 05:04:21;;;;;;;;;;;21.80;72.40;;;;;;5032608;28;19917;-72
2023/08/18 05:06:47;;;;;;;;;;;21.80;72.30;;;;;;5032408;28;19916;-72
2023/08/18 05:09:13;;;;;;;;;;;21.80;72.30;;;;;;5031157;28;19931;-73
2023/08/18 05:11:38;;;;;;;;;;;21.80;72.40;;;;;;5032505;28;20331;-72
2023/08/18 05:14:03;;;;;;;;;;;21.90;72.40;;;;;;5031345;28;19909;-72
2023/08/18 05:16:29;;;;;;;;;;;21.80;72.40;;;;;;5031019;28;20439;-72
2023/08/18 05:18:55;;;;;;;;;;;21.90;72.50;;;;;;5032291;28;20277;-72
2023/08/18 05:21:20;;;;;;;;;;;21.90;72.60;;;;;;5030940;28;20298;-72
2023/08/18 05:23:46;;;;;;;;;;;21.90;72.50;;;;;;5032101;28;19916;-72
2023/08/18 05:26:12;;;;;;;;;;;22.00;72.40;;;;;;5032364;28;20019;-72
2023/08/18 05:28:39;;;;;;;;;;;22.00;72.40;;;;;;5032212;28;20020;-72
2023/08/18 05:31:06;;;;;;;;;;;22.00;72.40;;;;;;5029897;28;20335;-72
2023/08/18 05:33:31;;;;;;;;;;;22.00;72.70;;;;;;5023784;28;19913;-73
2023/08/18 05:35:58;;;;;;;;;;;22.00;72.60;;;;;;5030441;28;19928;-72
2023/08/18 05:38:23;;;;;;;;;;;22.00;72.50;;;;;;5030685;28;19935;-73
2023/08/18 05:40:49;;;;;;;;;;;22.10;72.60;;;;;;5029117;28;19928;-73
2023/08/18 05:43:16;;;;;;;;;;;22.20;72.80;;;;;;5028017;28;20425;-72
2023/08/18 05:45:46;;;;;;;;;;;22.20;72.80;;;;;;5032068;28;19921;-72
2023/08/18 05:48:12;;;;;;;;;;;22.20;72.80;;;;;;5023238;28;20369;-72
2023/08/18 05:50:37;;;;;;;;;;;22.30;72.80;;;;;;5031551;28;19963;-72
2023/08/18 05:53:03;;;;;;;;;;;22.30;72.90;;;;;;5031399;28;19913;-72
2023/08/18 05:55:29;;;;;;;;;;;22.40;72.90;;;;;;5030027;28;20308;-72
2023/08/18 05:57:54;;;;;;;;;;;22.50;72.80;;;;;;5030420;28;19940;-72
2023/08/18 06:00:22;;;;;;;;;;;22.50;72.80;;;;;;5029181;28;21284;-72
2023/08/18 06:02:47;;;;;;;;;;;22.60;72.70;;;;;;5031566;28;20068;-72
2023/08/18 06:05:13;;;;;;;;;;;22.60;72.60;;;;;;5030394;28;19925;-71
2023/08/18 06:07:42;;;;;;;;;;;22.60;72.70;;;;;;5031265;28;20324;-71
2023/08/18 06:10:08;;;;;;;;;;;22.60;72.80;;;;;;5030105;28;19952;-71
2023/08/18 06:12:33;;;;;;;;;;;22.70;72.80;;;;;;5031467;28;20289;-71
2023/08/18 06:14:58;;;;;;;;;;;22.70;72.80;;;;;;5031533;28;19927;-71
2023/08/18 06:17:24;;;;;;;;;;;22.80;72.90;;;;;;5029688;28;19921;-72
2023/08/18 06:19:52;;;;;;;;;;;22.80;72.80;;;;;;5031713;28;20327;-71
2023/08/18 06:22:17;;;;;;;;;;;22.90;72.80;;;;;;5030161;28;19913;-72
2023/08/18 06:24:42;;;;;;;;;;;23.00;73.00;;;;;;5031322;28;19924;-72
2023/08/18 06:27:08;;;;;;;;;;;23.10;72.90;;;;;;5029385;28;19941;-72
2023/08/18 06:29:33;;;;;;;;;;;23.10;72.70;;;;;;5029878;28;19917;-72
2023/08/18 06:31:59;;;;;;;;;;;23.20;72.70;;;;;;5031072;28;20377;-72
2023/08/18 06:34:24;;;;;;;;;;;23.20;72.50;;;;;;5030334;28;19940;-72
2023/08/18 06:36:51;;;;;;;;;;;23.20;72.70;;;;;;5031011;28;19920;-72
2023/08/18 06:39:16;;;;;;;;;;;23.20;73.00;;;;;;5030040;28;20158;-73
2023/08/18 06:41:43;;;;;;;;;;;23.30;73.00;;;;;;5030926;28;20008;-73
2023/08/18 06:44:08;;;;;;;;;;;23.30;72.80;;;;;;5011907;28;19921;-73
2023/08/18 06:46:34;;;;;;;;;;;23.40;72.90;;;;;;5029105;28;19913;-73
2023/08/18 06:49:00;;;;;;;;;;;23.50;72.70;;;;;;5011409;28;19931;-73
2023/08/18 06:51:26;;;;;;;;;;;23.50;72.60;;;;;;5026644;28;19967;-73
2023/08/18 06:53:51;;;;;;;;;;;23.50;72.90;;;;;;5017980;28;19913;-73
2023/08/18 06:56:17;;;;;;;;;;;23.70;73.00;;;;;;5015527;28;20380;-73
2023/08/18 06:58:42;;;;;;;;;;;23.80;73.10;;;;;;5018225;28;20431;-73
2023/08/18 07:01:08;;;;;;;;;;;24.00;73.20;;;;;;5021244;28;20012;-74
2023/08/18 07:03:33;;;;;;;;;;;24.00;73.00;;;;;;5020218;28;20357;-73
2023/08/18 07:05:59;;;;;;;;;;;24.10;73.10;;;;;;5023030;28;19917;-74
2023/08/18 07:08:24;;;;;;;;;;;24.30;73.30;;;;;;5021346;28;19909;-74
2023/08/18 07:10:50;;;;;;;;;;;24.40;73.40;;;;;;5015990;28;19937;-74
2023/08/18 07:13:15;;;;;;;;;;;24.60;73.40;;;;;;5022234;28;19909;-74
2023/08/18 07:15:41;;;;;;;;;;;24.70;73.10;;;;;;5023488;28;19920;-74
2023/08/18 07:18:07;;;;;;;;;;;24.80;73.00;;;;;;5029913;28;19969;-74
2023/08/18 07:20:32;;;;;;;;;;;24.90;72.90;;;;;;5025403;28;19920;-74
2023/08/18 07:22:58;;;;;;;;;;;24.90;72.60;;;;;;5034433;28;19918;-75
2023/08/18 07:25:24;;;;;;;;;;;25.00;72.60;;;;;;5031086;28;19913;-75
2023/08/18 07:27:50;;;;;;;;;;;25.10;73.00;;;;;;5024088;28;19921;-75
2023/08/18 07:30:15;;;;;;;;;;;25.30;72.90;;;;;;5021082;28;20038;-76
2023/08/18 07:32:41;;;;;;;;;;;25.30;72.50;;;;;;5033734;28;20353;-76
2023/08/18 07:35:08;;;;;;;;;;;25.40;72.60;;;;;;5034616;28;20335;-76
2023/08/18 07:37:34;;;;;;;;;;;25.50;72.50;;;;;;5033184;28;19924;-76
2023/08/18 07:40:00;;;;;;;;;;;25.60;72.60;;;;;;5032080;28;19921;-76
2023/08/18 07:42:25;;;;;;;;;;;25.70;72.30;;;;;;5033847;28;19956;-76
2023/08/18 07:44:51;;;;;;;;;;;25.70;72.10;;;;;;5032180;28;19917;-76
2023/08/18 07:47:16;;;;;;;;;;;25.80;72.10;;;;;;5033907;28;19915;-76
2023/08/18 07:49:42;;;;;;;;;;;25.80;72.30;;;;;;5032502;28;20456;-76
2023/08/18 07:52:07;;;;;;;;;;;25.90;71.90;;;;;;5033866;28;19909;-77
2023/08/18 07:54:33;;;;;;;;;;;25.90;71.60;;;;;;5032559;28;19961;-77
2023/08/18 07:56:58;;;;;;;;;;;26.00;71.30;;;;;;5034201;28;19914;-77
2023/08/18 07:59:24;;;;;;;;;;;26.00;71.20;;;;;;5033984;28;19917;-77
2023/08/18 08:01:49;;;;;;;;;;;26.10;71.50;;;;;;5033257;28;19924;-77
2023/08/18 08:04:15;;;;;;;;;;;26.20;71.70;;;;;;5034271;28;19921;-76
2023/08/18 08:06:40;;;;;;;;;;;26.30;71.40;;;;;;5035788;28;19920;-76
2023/08/18 08:09:06;;;;;;;;;;;26.30;70.90;;;;;;5035700;28;20361;-76
2023/08/18 08:11:31;;;;;;;;;;;26.30;71.30;;;;;;5030101;28;20021;-76
2023/08/18 08:13:57;;;;;;;;;;;26.50;71.40;;;;;;5030075;28;20026;-76
2023/08/18 08:16:23;;;;;;;;;;;26.60;71.20;;;;;;5035244;28;19928;-75
2023/08/18 08:18:48;;;;;;;;;;;26.80;70.90;;;;;;5033721;28;19916;-75
2023/08/18 08:21:14;;;;;;;;;;;26.90;71.20;;;;;;5036722;28;19915;-75
2023/08/18 08:23:39;;;;;;;;;;;27.00;71.20;;;;;;5039490;28;20123;-75
2023/08/18 08:26:04;;;;;;;;;;;27.10;70.70;;;;;;5038453;28;19963;-75
2023/08/18 08:28:30;;;;;;;;;;;27.30;71.20;;;;;;5037546;28;19941;-76
2023/08/18 08:30:55;;;;;;;;;;;27.50;70.50;;;;;;5016542;28;20327;-76
2023/08/18 08:33:21;;;;;;;;;;;27.60;70.00;;;;;;5034590;28;19952;-75
2023/08/18 08:35:47;;;;;;;;;;;27.60;69.40;;;;;;5040746;28;19992;-75
2023/08/18 08:38:12;;;;;;;;;;;27.70;69.30;;;;;;5038739;28;20301;-75
2023/08/18 08:40:39;;;;;;;;;;;27.70;68.20;;;;;;5031296;28;19927;-74
2023/08/18 08:43:04;;;;;;;;;;;27.70;68.50;;;;;;5037578;28;19913;-75
2023/08/18 08:45:31;;;;;;;;;;;27.80;69.00;;;;;;5020090;28;19917;-75
2023/08/18 08:47:59;;;;;;;;;;;27.80;69.00;;;;;;5019784;28;20347;-75
2023/08/18 08:50:27;;;;;;;;;;;28.00;68.20;;;;;;5010536;28;19917;-75
2023/08/18 08:52:55;;;;;;;;;;;28.00;68.40;;;;;;5018092;28;19910;-75
2023/08/18 08:55:23;;;;;;;;;;;28.20;68.10;;;;;;5017297;28;19925;-75
2023/08/18 08:57:48;;;;;;;;;;;28.30;67.40;;;;;;5033312;28;19967;-76
2023/08/18 09:00:14;;;;;;;;;;;28.20;67.10;;;;;;5030412;28;20415;-76
2023/08/18 09:02:41;;;;;;;;;;;28.20;66.60;;;;;;5027447;28;19913;-76
2023/08/18 09:05:07;;;;;;;;;;;28.30;66.90;;;;;;5035306;28;19917;-76
2023/08/18 09:07:32;;;;;;;;;;;28.30;65.80;;;;;;5021724;28;19910;-76
2023/08/18 09:09:59;;;;;;;;;;;28.40;64.40;;;;;;5018662;28;20004;-76
2023/08/18 09:12:30;;;;;;;;;;;28.40;64.60;;;;;;5019084;28;19936;-76
2023/08/18 09:14:56;;;;;;;;;;;28.50;62.50;;;;;;5019499;28;19917;-76
2023/08/18 09:17:25;;;;;;;;;;;28.50;62.60;;;;;;5035488;28;19928;-76
2023/08/18 09:19:50;;;;;;;;;;;28.70;63.00;;;;;;5019356;28;19921;-76
2023/08/18 09:22:19;;;;;;;;;;;28.80;63.30;;;;;;5018519;28;19913;-76
2023/08/18 09:24:46;;;;;;;;;;;29.10;63.50;;;;;;5019359;28;19968;-76
2023/08/18 09:27:13;;;;;;;;;;;29.30;64.60;;;;;;5017674;28;19909;-76
2023/08/18 09:29:39;;;;;;;;;;;29.70;63.80;;;;;;5024325;28;19920;-76
2023/08/18 09:32:06;;;;;;;;;;;29.90;62.30;;;;;;5035020;28;20011;-76
2023/08/18 09:34:35;;;;;;;;;;;30.10;61.30;;;;;;5029266;28;19931;-76
2023/08/18 09:37:01;;;;;;;;;;;30.20;60.50;;;;;;5038114;28;19964;-77
2023/08/18 09:39:27;;;;;;;;;;;30.60;62.70;;;;;;5030596;28;19913;-77
2023/08/18 09:41:53;;;;;;;;;;;31.10;62.50;;;;;;5017248;28;19964;-77
2023/08/18 09:44:22;;;;;;;;;;;31.70;61.90;;;;;;5021103;28;19910;-77
2023/08/18 09:46:57;;;;;;;;;;;32.20;61.70;;;;;;5037015;28;19921;-78
2023/08/18 09:49:23;;;;;;;;;;;33.00;61.00;;;;;;5037771;28;19917;-78
2023/08/18 09:51:50;;;;;;;;;;;33.80;58.30;;;;;;5038935;28;19921;-78
2023/08/18 09:54:17;;;;;;;;;;;34.20;56.40;;;;;;5041231;28;20312;-79
2023/08/18 09:56:44;;;;;;;;;;;34.60;54.00;;;;;;5042871;28;19924;-80
2023/08/18 09:59:20;;;;;;;;;;;35.10;54.60;;;;;;5049786;28;19913;-80
2023/08/18 10:01:47;;;;;;;;;;;35.50;52.70;;;;;;5052674;28;19917;-80
2023/08/18 10:04:13;;;;;;;;;;;35.80;49.70;;;;;;5051400;28;19949;-80
2023/08/18 10:06:39;;;;;;;;;;;36.00;48.60;;;;;;5050369;28;19913;-80
2023/08/18 10:09:05;;;;;;;;;;;36.10;46.90;;;;;;5049708;28;19902;-80
2023/08/18 10:11:31;;;;;;;;;;;36.20;45.60;;;;;;5049466;28;19924;-81
2023/08/18 10:13:57;;;;;;;;;;;36.20;44.60;;;;;;5050141;28;19917;-78
2023/08/18 10:16:23;;;;;;;;;;;36.30;46.00;;;;;;5047627;28;19924;-80
2023/08/18 10:18:55;;;;;;;;;;;36.60;44.90;;;;;;5044188;28;19925;-81
2023/08/18 10:21:21;;;;;;;;;;;36.70;44.30;;;;;;5042347;28;19921;-81
2023/08/18 10:23:47;;;;;;;;;;;36.80;44.00;;;;;;5043989;28;20407;-80
2023/08/18 10:26:14;;;;;;;;;;;36.80;43.90;;;;;;5043958;28;19979;-80
2023/08/18 10:28:40;;;;;;;;;;;36.90;42.60;;;;;;5043888;28;19917;-80
2023/08/18 10:31:08;;;;;;;;;;;36.90;43.30;;;;;;5024622;28;19914;-82
2023/08/18 10:33:48;;;;;;;;;;;37.00;41.90;;;;;;5022589;28;19976;-80
2023/08/18 10:36:21;;;;;;;;;;;37.10;42.10;;;;;;5025025;28;19928;-81
2023/08/18 10:38:47;;;;;;;;;;;37.20;40.80;;;;;;5041751;28;19937;-82
2023/08/18 10:41:12;;;;;;;;;;;37.20;40.60;;;;;;5038664;28;19976;-81
2023/08/18 10:43:42;;;;;;;;;;;37.30;40.40;;;;;;5040197;28;20349;-81
2023/08/18 10:46:09;;;;;;;;;;;37.40;39.90;;;;;;5038340;28;19924;-77
2023/08/18 10:48:35;;;;;;;;;;;37.40;40.20;;;;;;5036948;28;19921;-78
2023/08/18 10:51:00;;;;;;;;;;;37.70;39.90;;;;;;5040740;28;19959;-78
2023/08/18 10:53:31;;;;;;;;;;;37.80;39.90;;;;;;5039696;28;19971;-79
2023/08/18 10:55:57;;;;;;;;;;;37.80;39.10;;;;;;5038939;28;19916;-78
2023/08/18 10:58:22;;;;;;;;;;;37.90;39.30;;;;;;5031091;28;20385;-80
2023/08/18 11:00:48;;;;;;;;;;;37.90;37.70;;;;;;5017661;28;19963;-81
2023/08/18 11:03:14;;;;;;;;;;;37.80;38.50;;;;;;5022417;28;19924;-80
2023/08/18 11:05:39;;;;;;;;;;;37.90;38.50;;;;;;5035433;28;19921;-80
2023/08/18 11:08:07;;;;;;;;;;;38.00;38.00;;;;;;5036794;28;19939;-80
2023/08/18 11:10:33;;;;;;;;;;;38.00;38.60;;;;;;5034270;28;19952;-81
2023/08/18 11:12:59;;;;;;;;;;;38.20;38.10;;;;;;5037381;28;19924;-82
2023/08/18 11:15:25;;;;;;;;;;;38.20;37.50;;;;;;5036754;28;19913;-80
2023/08/18 11:17:51;;;;;;;;;;;38.30;38.30;;;;;;5035784;28;19928;-81
2023/08/18 11:20:16;;;;;;;;;;;38.30;37.30;;;;;;5035212;28;19913;-80
2023/08/18 11:22:44;;;;;;;;;;;38.30;37.10;;;;;;5034205;28;19968;-81
2023/08/18 11:25:14;;;;;;;;;;;38.20;37.20;;;;;;5035580;28;19995;-80
2023/08/18 11:27:41;;;;;;;;;;;38.30;37.80;;;;;;5035384;28;20359;-81
2023/08/18 11:30:07;;;;;;;;;;;38.40;38.00;;;;;;5035698;28;20365;-75
2023/08/18 11:32:33;;;;;;;;;;;38.40;37.40;;;;;;5034554;28;19917;-75
2023/08/18 11:34:59;;;;;;;;;;;38.50;37.50;;;;;;5034117;28;19909;-75
2023/08/18 11:37:27;;;;;;;;;;;38.60;37.00;;;;;;5033465;28;19932;-74
2023/08/18 11:39:53;;;;;;;;;;;38.60;36.90;;;;;;5034103;28;20357;-74
2023/08/18 11:42:19;;;;;;;;;;;38.70;37.40;;;;;;5032411;28;19950;-74
2023/08/18 11:44:46;;;;;;;;;;;38.90;37.10;;;;;;5032725;28;19913;-74
2023/08/18 11:47:12;;;;;;;;;;;38.80;36.30;;;;;;5033924;28;20276;-74
2023/08/18 11:49:38;;;;;;;;;;;38.80;35.60;;;;;;5033274;28;19921;-74
2023/08/18 11:52:04;;;;;;;;;;;38.70;36.40;;;;;;5032443;28;19952;-74
2023/08/18 11:54:32;;;;;;;;;;;38.60;36.90;;;;;;5031461;28;19929;-74
2023/08/18 11:56:58;;;;;;;;;;;38.70;36.00;;;;;;5033697;28;20373;-74
2023/08/18 11:59:23;;;;;;;;;;;38.60;36.10;;;;;;5033463;28;19916;-74
2023/08/18 12:01:53;;;;;;;;;;;38.60;36.30;;;;;;5031744;28;19920;-74
2023/08/18 12:04:22;;;;;;;;;;;38.60;35.90;;;;;;5032211;28;19920;-74
2023/08/18 12:06:48;;;;;;;;;;;38.50;35.80;;;;;;5030898;28;20420;-73
2023/08/18 12:09:13;;;;;;;;;;;38.50;35.90;;;;;;5033113;28;19948;-73
2023/08/18 12:11:39;;;;;;;;;;;38.40;35.90;;;;;;5033683;28;20328;-73
2023/08/18 12:14:04;;;;;;;;;;;38.40;36.00;;;;;;5032117;28;20352;-73
2023/08/18 12:16:30;;;;;;;;;;;38.30;35.10;;;;;;5031830;28;19917;-73
2023/08/18 12:18:56;;;;;;;;;;;38.10;35.60;;;;;;5030835;28;20372;-73
2023/08/18 12:21:21;;;;;;;;;;;38.10;35.80;;;;;;5031873;28;19913;-73
2023/08/18 12:23:47;;;;;;;;;;;38.20;36.10;;;;;;5032098;28;19917;-74
2023/08/18 12:26:14;;;;;;;;;;;38.30;35.90;;;;;;5013682;28;19917;-73
2023/08/18 12:28:40;;;;;;;;;;;38.30;36.20;;;;;;5031174;28;19943;-73
2023/08/18 12:31:05;;;;;;;;;;;38.50;36.30;;;;;;5033647;28;20515;-73
2023/08/18 12:33:31;;;;;;;;;;;38.60;35.90;;;;;;5032021;28;19921;-73
2023/08/18 12:35:56;;;;;;;;;;;38.80;35.90;;;;;;5031542;28;19913;-73
2023/08/18 12:38:22;;;;;;;;;;;38.80;35.50;;;;;;5032409;28;20378;-73
2023/08/18 12:40:47;;;;;;;;;;;38.80;34.90;;;;;;5032517;28;19967;-73
2023/08/18 12:43:13;;;;;;;;;;;38.70;34.80;;;;;;5032332;28;19924;-73
2023/08/18 12:45:39;;;;;;;;;;;38.60;34.80;;;;;;5027848;28;20275;-73
2023/08/18 12:48:04;;;;;;;;;;;38.50;35.30;;;;;;5031403;28;20343;-73
2023/08/18 12:50:30;;;;;;;;;;;38.40;35.10;;;;;;5032579;28;19913;-73
2023/08/18 12:52:55;;;;;;;;;;;38.30;34.70;;;;;;5018631;28;20388;-73
2023/08/18 12:55:21;;;;;;;;;;;38.20;35.00;;;;;;5012889;28;19910;-73
2023/08/18 12:57:46;;;;;;;;;;;38.20;35.30;;;;;;5011776;28;19969;-72
2023/08/18 13:00:12;;;;;;;;;;;38.20;35.30;;;;;;5012796;28;20435;-72
2023/08/18 13:02:38;;;;;;;;;;;38.30;35.50;;;;;;5027527;28;20311;-72
2023/08/18 13:05:04;;;;;;;;;;;38.50;35.40;;;;;;5030639;28;19909;-72
2023/08/18 13:07:29;;;;;;;;;;;38.50;34.90;;;;;;5031776;28;20472;-72
2023/08/18 13:09:55;;;;;;;;;;;38.60;34.60;;;;;;5030919;28;19928;-74
2023/08/18 13:12:20;;;;;;;;;;;38.60;34.60;;;;;;5031474;28;20004;-73
2023/08/18 13:14:46;;;;;;;;;;;38.50;34.80;;;;;;5032289;28;19960;-73
2023/08/18 13:17:11;;;;;;;;;;;38.60;35.00;;;;;;5029902;28;19921;-72
2023/08/18 13:19:37;;;;;;;;;;;38.70;34.60;;;;;;5030481;28;19924;-72
2023/08/18 13:22:03;;;;;;;;;;;38.70;34.40;;;;;;5032323;28;20396;-72
2023/08/18 13:24:29;;;;;;;;;;;38.70;34.50;;;;;;5031952;28;19909;-72
2023/08/18 13:26:55;;;;;;;;;;;38.70;33.80;;;;;;5032358;28;20004;-72
2023/08/18 13:29:21;;;;;;;;;;;38.40;33.80;;;;;;5031891;28;20377;-72
2023/08/18 13:31:48;;;;;;;;;;;38.30;34.10;;;;;;5030502;28;19948;-72
2023/08/18 13:34:14;;;;;;;;;;;38.20;34.40;;;;;;5030142;28;19917;-72
2023/08/18 13:36:40;;;;;;;;;;;38.20;34.60;;;;;;5030483;28;20020;-72
2023/08/18 13:39:06;;;;;;;;;;;38.30;34.90;;;;;;5029851;28;20008;-72
2023/08/18 13:41:32;;;;;;;;;;;38.30;34.50;;;;;;5031710;28;20356;-73
2023/08/18 13:43:58;;;;;;;;;;;38.30;34.50;;;;;;5030938;28;19971;-71
2023/08/18 13:46:23;;;;;;;;;;;38.20;35.00;;;;;;5028702;28;19920;-72
2023/08/18 13:48:48;;;;;;;;;;;38.20;35.00;;;;;;5028955;28;19964;-71
2023/08/18 13:51:14;;;;;;;;;;;38.10;34.80;;;;;;5031109;28;19921;-72
2023/08/18 13:53:39;;;;;;;;;;;38.10;35.20;;;;;;5014221;28;20281;-71
2023/08/18 13:56:05;;;;;;;;;;;38.20;35.30;;;;;;5011684;28;19910;-72
2023/08/18 13:58:31;;;;;;;;;;;38.30;35.00;;;;;;5029063;28;19917;-73
2023/08/18 14:00:59;;;;;;;;;;;38.10;34.50;;;;;;5020489;28;19983;-73
2023/08/18 14:03:24;;;;;;;;;;;37.80;35.10;;;;;;5014669;28;19928;-73
2023/08/18 14:05:50;;;;;;;;;;;37.80;35.60;;;;;;5018587;28;19917;-71
2023/08/18 14:08:16;;;;;;;;;;;37.90;35.60;;;;;;5017658;28;19936;-73